Terminal Aerodrome Forecast
Issued by NWS Omaha/Valley, NE

Home | Current Version | Previous Version | Text Only | Print | Product List | Glossary On
Versions: 1 2 3 4 5 6 7 8 9 10 11 12 13 14 15 16 17 18 19 20 21 22 23 24 25 26 27 28
000
FTUS43 KOAX 012320
TAFOFK
TAF
KOFK 012320Z 0200/0224 19009KT P6SM SCT250
     FM020600 20011KT P6SM BKN120 WS007/22038KT
     FM021300 25010KT P6SM SCT100
     FM021800 30012KT P6SM SCT040 SCT100=

USA.gov is the U.S. government's official web portal to all federal, state and local government web resources and services.